• Join FlightAware (Why Join?)
  • Login
  • US Flag 
06:25AM EST


 

Airport Tracker/Info


-or-


 

Live Flight TrackerFlight Track Log ✈ SKW6328 ✈ 16 de Apr de 2014 ✈ KSFO - KLAS

Flight Track Log - Related Links

Times and Time Zones

All times are in EDT time to prevent confusion due to time zone crossing. See the SKW6328 flight status page for this flight to view local times or setup timezone preferences in your user account.

Time Position Orientation Groundspeed Altitude Reporting Facility
EDT Latitude Longitude Course Direction KTS MPH feet Rate Location/Type
01:22PM 37.6583 -122.3658 133° Southeast 191 220 2,100  Level Oakland Center
01:23PM 37.7047 -122.4019 328° Northwest 242 278 4,500 2,390 Climbing Oakland Center
01:24PM 37.6553 -122.4631 224° Southwest 275 316 7,000 2,537 Climbing Oakland Center
01:25PM 37.5731 -122.4386 167° South 307 353 9,700 2,585 Climbing Oakland Center
01:26PM 37.3010 -122.1678 136° Southeast  Level FlightAware Approximate
01:26PM 37.4986 -122.3839 150° Southeast 310 357 12,300  Level Oakland Center
01:27PM 37.2341 -122.0621 133° Southeast  Level FlightAware Approximate
01:27PM 37.4642 -122.2806 113° Southeast 327 376 14,300  Level Oakland Center
01:28PM 37.4314 -122.1322 106° East 360 414 16,300 2,146 Climbing Oakland Center
01:29PM 37.4028 -122.0036 106° East 379 436 18,700 1,951 Climbing Oakland Center
01:30PM 37.3722 -121.8742 107° East 383 441 20,300 1,659 Climbing Oakland Center
01:31PM 37.3417 -121.7417 106° East 399 459 22,100 1,659 Climbing Oakland Center
01:32PM 37.3100 -121.6047 106° East 408 470 23,700 1,512 Climbing Oakland Center
01:33PM 37.2781 -121.4636 106° East 417 480 25,200 1,561 Climbing Oakland Center
01:34PM 37.2381 -121.2908 106° East 426 490 26,900 1,415 Climbing Oakland Center
01:35PM 37.2025 -121.1475 107° East 429 494 28,100 1,171 Climbing Oakland Center
01:36PM 37.1678 -120.9989 106° East 440 506 29,300 1,073 Climbing Oakland Center
01:37PM 37.1508 -120.8478 98° East 442 509 30,300 927 Climbing Oakland Center
01:38PM 37.1658 -120.6947 83° East 444 511 31,200 927 Climbing Oakland Center
01:39PM 37.1800 -120.5408 83° East 444 511 32,200 878 Climbing Oakland Center
01:40PM 37.1931 -120.3883 84° East 444 511 33,000 390 Climbing Oakland Center
01:41PM 37.2078 -120.2325 83° East 446 513 33,000  Level Oakland Center
01:42PM 37.2239 -120.0456 84° East 449 517 33,000  Level Oakland Center
01:43PM 37.2372 -119.8864 84° East 455 524 33,000 -49 Level Oakland Center
01:44PM 37.2500 -119.7456 83° East 460 529 32,900  Descending Oakland Center
01:45PM 37.2653 -119.5533 84° East 461 531 33,000 49 Climbing Oakland Center
01:46PM 37.2781 -119.3939 84° East 461 531 33,000  Level Oakland Center
01:47PM 37.2908 -119.2344 84° East 461 531 33,000  Level Oakland Center
01:48PM 37.3031 -119.0750 84° East 461 531 33,000  Level Oakland Center
01:49PM 37.3156 -118.9167 84° East 459 528 33,000  Level Oakland Center
01:50PM 37.3294 -118.7442 84° East 459 528 33,000  Level Oakland Center
01:51PM 37.3411 -118.5842 85° East 459 528 33,000  Level Oakland Center
01:52PM 37.3531 -118.4244 85° East 459 528 33,000  Level Oakland Center
01:53PM 37.3650 -118.2656 85° East 459 528 33,000  Level Oakland Center
01:54PM 37.3753 -118.1064 85° East 458 527 33,000  Level Oakland Center
01:55PM 37.3864 -117.9461 85° East 458 527 33,000  Level Oakland Center
01:56PM 37.3994 -117.7550 85° East 459 528 33,000  Level Oakland Center
01:57PM 37.4103 -117.5958 85° East 458 527 33,000  Level Oakland Center
01:58PM 37.4153 -117.4347 88° East 460 529 33,000  Level Oakland Center
01:59PM 37.3819 -117.2733 105° East 489 563 33,000  Level Oakland Center
02:00PM 37.3000 -117.1317 126° Southeast 511 588 33,000  Level Oakland Center
02:02PM 37.1867 -117.0214 142° Southeast 520 598 33,000  Level Oakland Center
02:03PM 37.0750 -116.9117 142° Southeast 512 589 33,000  Level Oakland Center
02:04PM 36.9672 -116.7981 140° Southeast 506 582 33,000  Level Oakland Center
02:05PM 36.8358 -116.6625 140° Southeast 507 583 33,000 -1,317 Level Oakland Center
02:06PM 36.7269 -116.5464 139° Southeast 509 586 30,300 -2,855 Descending Oakland Center
02:07PM 36.6197 -116.4328 140° Southeast 509 586 27,100 -3,083 Descending Oakland Center
02:08PM 36.4903 -116.2931 139° Southeast 488 562 22,900 -3,125 Descending Los Angeles Center
02:09PM 36.3906 -116.1625 133° Southeast 466 536 19,600 -3,048 Descending Los Angeles Center
02:10PM 36.3044 -116.0417 131° Southeast 453 521 16,600 -1,742 Descending Los Angeles Center
02:11PM 36.2253 -115.9322 132° Southeast 388 447 16,000 -288 Descending Los Angeles Center
02:12PM 36.1792 -115.8347 120° Southeast 336 387 16,000 -629 Level Los Angeles Center
02:13PM 36.1411 -115.7150 111° Southeast 346 398 14,700 -1,512 Descending Los Angeles Center
02:14PM 36.1011 -115.5925 112° Southeast 384 442 12,900 -1,750 Descending Los Angeles Center
02:14PM 36.0944 -115.5744 115° Southeast 393 452 12,600 -1,754 Descending Los Angeles Center
02:15PM 36.0594 -115.4608 111° Southeast 391 450 11,000 -1,096 Descending Los Angeles Center
02:16PM 36.0286 -115.3461 108° East 337 388 10,500 -885 Descending Los Angeles Center
02:17PM 36.0214 -115.2392 95° East 286 329 9,200 -780 Descending Los Angeles Center
02:18PM 36.0164 -115.1614 95° East 206 237 8,900 -581 Descending Los Angeles Center
02:19PM 36.0114 -115.0897 95° East 198 228 8,000 -590 Descending Los Angeles Center
02:20PM 36.0169 -115.0256 84° East 203 234 7,700 -864 Descending Los Angeles Center
02:21PM 36.0700 -114.9947 25° Northeast 196 226 6,200 -1,219 Descending Los Angeles Center
02:23PM 36.1156 -115.0219 334° Northwest 194 223 5,100 -1,033 Descending Los Angeles Center
02:24PM 36.1550 -115.0650 319° Northwest 173 199 4,100 -678 Descending Los Angeles Center
02:24PM 36.1653 -115.1122 285° West 147 169 3,800 -621 Descending Los Angeles Center
02:25PM 36.1303 -115.1397 212° Southwest 146 168 2,900 -930 Descending Los Angeles Center
02:26PM 36.1250 -115.1414 194° South 147 169 2,700 -667 Descending Los Angeles Center
02:27PM 36.0878 -115.1622 204° Southwest 146 168 2,100 -581 Descending Los Angeles Center